Time;durP1;ratioP1;P1;durP2;ratioP2;P2;SDS_P1;SDS_P2;PMS_P1;PMS_P2;Temp;Humidity;BMP_temperature;BMP_pressure;BME280_temperature;BME280_humidity;BME280_pressure;Samples;Min_cycle;Max_cycle;Signal;HPM_P1;HPM_P2
2022/07/29 00:01:49;;;;;;;;;;;18.70;80.40;;;;;;5006173;28;19914;-73
2022/07/29 00:04:15;;;;;;;;;;;18.60;81.40;;;;;;5005134;28;19918;-73
2022/07/29 00:06:41;;;;;;;;;;;18.60;82.70;;;;;;5011721;28;19916;-73
2022/07/29 00:09:07;;;;;;;;;;;18.50;83.50;;;;;;5010179;28;19910;-73
2022/07/29 00:11:33;;;;;;;;;;;18.40;84.50;;;;;;5006482;28;20290;-73
2022/07/29 00:13:59;;;;;;;;;;;18.30;84.90;;;;;;5011167;28;19914;-74
2022/07/29 00:16:25;;;;;;;;;;;18.20;85.20;;;;;;5005604;28;19909;-73
2022/07/29 00:18:51;;;;;;;;;;;18.10;86.20;;;;;;5005639;28;20389;-73
2022/07/29 00:21:17;;;;;;;;;;;18.10;87.30;;;;;;5008728;28;20274;-73
2022/07/29 00:23:43;;;;;;;;;;;18.10;87.10;;;;;;5004083;28;19920;-76
2022/07/29 00:26:10;;;;;;;;;;;18.10;87.30;;;;;;5008111;28;20277;-74
2022/07/29 00:28:36;;;;;;;;;;;18.10;87.70;;;;;;5005809;28;19909;-73
2022/07/29 00:31:02;;;;;;;;;;;17.90;88.70;;;;;;5011458;28;19925;-73
2022/07/29 00:33:28;;;;;;;;;;;17.80;89.70;;;;;;5010726;28;19910;-77
2022/07/29 00:35:54;;;;;;;;;;;17.80;90.10;;;;;;5005582;28;19909;-73
2022/07/29 00:38:20;;;;;;;;;;;17.80;90.10;;;;;;5007572;28;19917;-73
2022/07/29 00:40:47;;;;;;;;;;;17.90;90.30;;;;;;5010979;28;19909;-73
2022/07/29 00:43:14;;;;;;;;;;;18.00;89.70;;;;;;5010920;28;20376;-73
2022/07/29 00:45:43;;;;;;;;;;;18.00;89.40;;;;;;5006965;28;19917;-73
2022/07/29 00:48:10;;;;;;;;;;;18.20;88.50;;;;;;5007190;28;20268;-73
2022/07/29 00:50:36;;;;;;;;;;;18.20;88.70;;;;;;5005795;28;19910;-73
2022/07/29 00:53:03;;;;;;;;;;;18.20;88.10;;;;;;5009935;28;19909;-73
2022/07/29 00:55:30;;;;;;;;;;;18.10;88.20;;;;;;5009566;28;20220;-73
2022/07/29 00:57:56;;;;;;;;;;;18.00;88.40;;;;;;5007904;28;20359;-73
2022/07/29 01:00:24;;;;;;;;;;;18.10;88.40;;;;;;5014933;28;20266;-73
2022/07/29 01:02:50;;;;;;;;;;;18.20;88.00;;;;;;5013227;28;19913;-72
2022/07/29 01:05:18;;;;;;;;;;;18.30;87.40;;;;;;5007440;28;19918;-72
2022/07/29 01:07:45;;;;;;;;;;;18.30;86.60;;;;;;5011162;28;19917;-75
2022/07/29 01:10:12;;;;;;;;;;;18.30;86.50;;;;;;5010837;28;20355;-73
2022/07/29 01:12:39;;;;;;;;;;;18.30;86.10;;;;;;5012557;28;19909;-74
2022/07/29 01:15:06;;;;;;;;;;;18.40;84.80;;;;;;5006727;28;20300;-73
2022/07/29 01:17:51;;;;;;;;;;;18.50;84.40;;;;;;5014791;28;19909;-74
2022/07/29 01:20:25;;;;;;;;;;;18.40;83.50;;;;;;5009344;28;20310;-75
2022/07/29 01:22:54;;;;;;;;;;;18.40;82.80;;;;;;5010561;28;19909;-74
2022/07/29 01:25:38;;;;;;;;;;;18.40;83.30;;;;;;5012314;28;19918;-74
2022/07/29 01:28:25;;;;;;;;;;;18.40;82.70;;;;;;5013657;28;19910;-74
2022/07/29 01:30:51;;;;;;;;;;;18.30;82.80;;;;;;4987983;28;19928;-74
2022/07/29 01:36:07;;;;;;;;;;;18.40;82.10;;;;;;5008770;28;20290;-74
2022/07/29 01:38:34;;;;;;;;;;;18.30;82.10;;;;;;5012429;28;19909;-74
2022/07/29 01:41:09;;;;;;;;;;;18.20;82.30;;;;;;5008974;28;19910;-73
2022/07/29 01:43:41;;;;;;;;;;;18.20;82.80;;;;;;5008470;28;19914;-77
2022/07/29 01:46:11;;;;;;;;;;;18.10;82.60;;;;;;5010385;28;19924;-73
2022/07/29 01:48:42;;;;;;;;;;;18.10;82.90;;;;;;5012570;28;19909;-74
2022/07/29 01:51:14;;;;;;;;;;;18.00;82.80;;;;;;5009259;28;19917;-72
2022/07/29 01:53:55;;;;;;;;;;;18.00;83.00;;;;;;5007372;28;19913;-73
2022/07/29 01:56:22;;;;;;;;;;;17.90;83.30;;;;;;5008210;28;19916;-73
2022/07/29 01:58:49;;;;;;;;;;;17.90;83.80;;;;;;5009959;28;19964;-73
2022/07/29 02:01:15;;;;;;;;;;;17.80;83.80;;;;;;5006743;28;19913;-74
2022/07/29 02:03:45;;;;;;;;;;;17.70;84.20;;;;;;5009779;28;19917;-73
2022/07/29 02:06:12;;;;;;;;;;;17.60;86.30;;;;;;5013288;28;19924;-73
2022/07/29 02:08:39;;;;;;;;;;;17.60;85.90;;;;;;5008714;28;19917;-72
2022/07/29 02:11:06;;;;;;;;;;;17.60;87.20;;;;;;5008683;28;19916;-73
2022/07/29 02:13:34;;;;;;;;;;;17.60;86.60;;;;;;5009095;28;19913;-74
2022/07/29 02:16:00;;;;;;;;;;;17.60;86.10;;;;;;5007311;28;19910;-73
2022/07/29 02:18:27;;;;;;;;;;;17.60;90.30;;;;;;5010027;28;19916;-73
2022/07/29 02:20:55;;;;;;;;;;;17.50;90.00;;;;;;5011587;28;19909;-72
2022/07/29 02:23:22;;;;;;;;;;;17.50;86.80;;;;;;5005378;28;20362;-73
2022/07/29 02:25:49;;;;;;;;;;;17.40;87.30;;;;;;5010217;28;19932;-73
2022/07/29 02:28:16;;;;;;;;;;;17.50;88.10;;;;;;5005433;28;19925;-72
2022/07/29 02:30:42;;;;;;;;;;;17.50;87.60;;;;;;5006977;28;19921;-73
2022/07/29 02:33:10;;;;;;;;;;;17.50;87.50;;;;;;5006430;28;19924;-76
2022/07/29 02:35:36;;;;;;;;;;;17.40;88.80;;;;;;5005075;28;19909;-73
2022/07/29 02:40:48;;;;;;;;;;;17.30;90.50;;;;;;5009698;28;19909;-73
2022/07/29 02:43:14;;;;;;;;;;;17.20;90.80;;;;;;5009574;28;19909;-73
2022/07/29 02:45:41;;;;;;;;;;;17.10;90.20;;;;;;5011335;28;20282;-75
2022/07/29 02:48:10;;;;;;;;;;;17.00;91.20;;;;;;5011983;28;20285;-74
2022/07/29 02:50:44;;;;;;;;;;;17.00;90.60;;;;;;5007761;28;19909;-73
2022/07/29 02:53:16;;;;;;;;;;;17.10;90.10;;;;;;5012002;28;19909;-76
2022/07/29 02:56:00;;;;;;;;;;;16.90;90.50;;;;;;5007147;28;19920;-74
2022/07/29 02:58:33;;;;;;;;;;;16.80;91.40;;;;;;5009080;28;19909;-74
2022/07/29 03:01:02;;;;;;;;;;;16.80;92.00;;;;;;5009277;28;19914;-74
2022/07/29 03:03:33;;;;;;;;;;;16.80;91.50;;;;;;5005829;28;19936;-77
2022/07/29 03:06:00;;;;;;;;;;;16.70;91.40;;;;;;5009743;28;19977;-74
2022/07/29 03:08:27;;;;;;;;;;;16.60;92.20;;;;;;5007888;28;19909;-74
2022/07/29 03:10:53;;;;;;;;;;;16.60;92.50;;;;;;5006805;28;19909;-74
2022/07/29 03:13:19;;;;;;;;;;;16.50;92.10;;;;;;5006278;28;19914;-76
2022/07/29 03:15:45;;;;;;;;;;;16.50;92.80;;;;;;5008446;28;19909;-73
2022/07/29 03:18:12;;;;;;;;;;;16.50;92.60;;;;;;5001367;28;19920;-81
2022/07/29 03:20:41;;;;;;;;;;;16.50;92.30;;;;;;5009102;28;19933;-73
2022/07/29 03:23:07;;;;;;;;;;;16.50;92.90;;;;;;5006587;28;19910;-73
2022/07/29 03:25:34;;;;;;;;;;;16.40;93.20;;;;;;5007051;28;19917;-75
2022/07/29 03:28:00;;;;;;;;;;;16.40;93.50;;;;;;5006711;28;20274;-73
2022/07/29 03:30:26;;;;;;;;;;;16.50;93.60;;;;;;5008113;28;20292;-73
2022/07/29 03:32:52;;;;;;;;;;;16.40;93.40;;;;;;5009061;28;20363;-72
2022/07/29 03:35:19;;;;;;;;;;;16.30;93.90;;;;;;5008203;28;19954;-72
2022/07/29 03:37:45;;;;;;;;;;;16.30;94.10;;;;;;5011663;28;19909;-72
2022/07/29 03:40:14;;;;;;;;;;;16.40;93.60;;;;;;5006004;28;19917;-80
2022/07/29 03:42:42;;;;;;;;;;;16.30;93.70;;;;;;5009927;28;19925;-73
2022/07/29 03:45:10;;;;;;;;;;;16.20;94.00;;;;;;5008091;28;19924;-73
2022/07/29 03:47:38;;;;;;;;;;;16.10;94.20;;;;;;4989111;28;19917;-73
2022/07/29 03:50:06;;;;;;;;;;;16.10;94.50;;;;;;5009864;28;19905;-73
2022/07/29 03:52:32;;;;;;;;;;;16.10;94.50;;;;;;5010740;28;19917;-73
2022/07/29 03:54:58;;;;;;;;;;;16.00;95.10;;;;;;5004157;28;20293;-75
2022/07/29 03:57:25;;;;;;;;;;;16.10;95.30;;;;;;5008277;28;19909;-73
2022/07/29 03:59:51;;;;;;;;;;;16.00;95.10;;;;;;5010369;28;19910;-73
2022/07/29 04:02:18;;;;;;;;;;;16.00;95.40;;;;;;5009562;28;19914;-74
2022/07/29 04:04:44;;;;;;;;;;;15.90;95.40;;;;;;4996747;28;19937;-77
2022/07/29 04:07:14;;;;;;;;;;;15.80;95.70;;;;;;4999346;28;19914;-74
2022/07/29 04:09:40;;;;;;;;;;;15.80;95.90;;;;;;5002881;28;19916;-74
2022/07/29 04:12:06;;;;;;;;;;;15.70;96.10;;;;;;5007366;28;20354;-72
2022/07/29 04:14:33;;;;;;;;;;;15.70;96.50;;;;;;5007982;28;20370;-73
2022/07/29 04:16:59;;;;;;;;;;;15.60;96.80;;;;;;5005058;28;19910;-74
2022/07/29 04:19:25;;;;;;;;;;;15.60;97.00;;;;;;5006254;28;19986;-73
2022/07/29 04:21:51;;;;;;;;;;;15.50;97.20;;;;;;5008641;28;19921;-74
2022/07/29 04:24:17;;;;;;;;;;;15.50;97.40;;;;;;5005262;28;20359;-74
2022/07/29 04:26:45;;;;;;;;;;;15.50;97.80;;;;;;5007313;28;19916;-73
2022/07/29 04:29:11;;;;;;;;;;;15.50;97.90;;;;;;5013079;28;19910;-73
2022/07/29 04:31:38;;;;;;;;;;;15.50;97.70;;;;;;5010097;28;19921;-74
2022/07/29 04:34:04;;;;;;;;;;;15.60;97.90;;;;;;5012533;28;20355;-73
2022/07/29 04:36:31;;;;;;;;;;;15.70;97.70;;;;;;5009666;28;19964;-73
2022/07/29 04:38:57;;;;;;;;;;;15.80;97.40;;;;;;5014169;28;19909;-73
2022/07/29 04:41:23;;;;;;;;;;;15.90;97.40;;;;;;5011573;28;19909;-73
2022/07/29 04:43:49;;;;;;;;;;;16.00;97.30;;;;;;5012679;28;19909;-73
2022/07/29 04:46:15;;;;;;;;;;;16.40;96.60;;;;;;5012644;28;19914;-74
2022/07/29 04:48:41;;;;;;;;;;;17.10;94.60;;;;;;5014325;28;19917;-74
2022/07/29 04:51:07;;;;;;;;;;;17.90;92.70;;;;;;5007991;28;19973;-74
2022/07/29 04:53:33;;;;;;;;;;;18.60;90.80;;;;;;5012860;28;19985;-73
2022/07/29 04:55:59;;;;;;;;;;;19.20;87.70;;;;;;5010351;28;19915;-73
2022/07/29 04:58:26;;;;;;;;;;;19.40;86.10;;;;;;5007845;28;19916;-74
2022/07/29 05:00:52;;;;;;;;;;;19.80;84.50;;;;;;5012973;28;19918;-73
2022/07/29 05:03:18;;;;;;;;;;;20.60;80.70;;;;;;5012138;28;19933;-74
2022/07/29 05:05:44;;;;;;;;;;;21.30;75.70;;;;;;5007710;28;19920;-74
2022/07/29 05:08:10;;;;;;;;;;;22.00;72.20;;;;;;5011025;28;19920;-74
2022/07/29 05:10:37;;;;;;;;;;;22.30;68.20;;;;;;5008036;28;19909;-74
2022/07/29 05:13:05;;;;;;;;;;;22.10;68.60;;;;;;5012195;28;20282;-74
2022/07/29 05:15:31;;;;;;;;;;;21.80;69.30;;;;;;5006829;28;20275;-74
2022/07/29 05:17:57;;;;;;;;;;;21.60;69.70;;;;;;5009245;28;19909;-75
2022/07/29 05:20:27;;;;;;;;;;;21.70;69.80;;;;;;5007972;28;19964;-74
2022/07/29 05:22:57;;;;;;;;;;;21.60;69.60;;;;;;5002389;28;19910;-73
2022/07/29 05:25:24;;;;;;;;;;;21.70;70.30;;;;;;5006593;28;19936;-74
2022/07/29 05:27:50;;;;;;;;;;;21.90;69.50;;;;;;5005330;28;20502;-74
2022/07/29 05:30:16;;;;;;;;;;;22.00;69.40;;;;;;5010128;28;19924;-74
2022/07/29 05:32:42;;;;;;;;;;;22.10;68.40;;;;;;5012260;28;19925;-74
2022/07/29 05:35:08;;;;;;;;;;;22.60;67.40;;;;;;5008027;28;19910;-74
2022/07/29 05:37:34;;;;;;;;;;;23.30;64.90;;;;;;5007556;28;19916;-74
2022/07/29 05:40:01;;;;;;;;;;;23.20;64.40;;;;;;5011947;28;19932;-75
2022/07/29 05:42:27;;;;;;;;;;;23.70;63.30;;;;;;5012589;28;19910;-74
2022/07/29 05:44:53;;;;;;;;;;;24.00;61.30;;;;;;5012892;28;19924;-74
2022/07/29 05:47:19;;;;;;;;;;;24.00;62.70;;;;;;5007049;28;19913;-74
2022/07/29 05:49:45;;;;;;;;;;;24.30;60.60;;;;;;5012527;28;19916;-74
2022/07/29 05:52:12;;;;;;;;;;;24.60;59.30;;;;;;5008222;28;19916;-74
2022/07/29 05:54:39;;;;;;;;;;;24.50;59.40;;;;;;5008358;28;19913;-75
2022/07/29 05:57:05;;;;;;;;;;;24.80;58.30;;;;;;5012233;28;19910;-75
2022/07/29 05:59:35;;;;;;;;;;;25.30;58.10;;;;;;5011447;28;19916;-74
2022/07/29 06:02:01;;;;;;;;;;;25.60;57.20;;;;;;5008743;28;19914;-75
2022/07/29 06:04:27;;;;;;;;;;;25.20;57.00;;;;;;5002810;28;19909;-75
2022/07/29 06:06:53;;;;;;;;;;;24.70;58.40;;;;;;5008211;28;20370;-75
2022/07/29 06:09:19;;;;;;;;;;;25.20;59.90;;;;;;5009219;28;19924;-75
2022/07/29 06:11:45;;;;;;;;;;;25.90;58.00;;;;;;5012320;28;19925;-75
2022/07/29 06:14:11;;;;;;;;;;;26.60;56.40;;;;;;5012448;28;19916;-75
2022/07/29 06:16:37;;;;;;;;;;;26.50;55.50;;;;;;5009564;28;19952;-75
2022/07/29 06:19:04;;;;;;;;;;;25.50;56.70;;;;;;5008403;28;19956;-75
2022/07/29 06:21:30;;;;;;;;;;;25.20;59.90;;;;;;5013411;28;20359;-76
2022/07/29 06:23:56;;;;;;;;;;;26.00;57.70;;;;;;5002567;28;19910;-76
2022/07/29 06:26:22;;;;;;;;;;;26.60;56.10;;;;;;5010025;28;19917;-76
2022/07/29 06:28:48;;;;;;;;;;;26.00;57.10;;;;;;5005568;28;19914;-75
2022/07/29 06:31:14;;;;;;;;;;;25.60;57.60;;;;;;5008731;28;19925;-86
2022/07/29 06:33:40;;;;;;;;;;;25.00;58.90;;;;;;5009286;28;19917;-76
2022/07/29 06:36:07;;;;;;;;;;;25.90;58.40;;;;;;5008858;28;19909;-75
2022/07/29 06:38:33;;;;;;;;;;;26.20;57.40;;;;;;5007841;28;19913;-75
2022/07/29 06:40:59;;;;;;;;;;;26.20;57.30;;;;;;5012083;28;19909;-75
2022/07/29 06:43:31;;;;;;;;;;;26.20;57.90;;;;;;5012108;28;20274;-76
2022/07/29 06:46:04;;;;;;;;;;;25.20;58.70;;;;;;5008611;28;20422;-75
2022/07/29 06:48:31;;;;;;;;;;;24.60;61.10;;;;;;5009907;28;19919;-75
2022/07/29 06:50:57;;;;;;;;;;;23.50;63.40;;;;;;5009286;28;20306;-75
2022/07/29 06:53:23;;;;;;;;;;;23.40;64.70;;;;;;5012145;28;20373;-75
2022/07/29 06:55:49;;;;;;;;;;;23.50;65.00;;;;;;5003913;28;19917;-77
2022/07/29 06:58:17;;;;;;;;;;;24.10;64.30;;;;;;5004519;28;19918;-74
2022/07/29 07:00:49;;;;;;;;;;;24.50;63.30;;;;;;5010949;28;19924;-75
2022/07/29 07:03:16;;;;;;;;;;;24.90;61.40;;;;;;5001360;28;19917;-77
2022/07/29 07:05:42;;;;;;;;;;;24.80;61.50;;;;;;5005922;28;19936;-74
2022/07/29 07:08:08;;;;;;;;;;;24.60;62.70;;;;;;5007159;28;19913;-76
2022/07/29 07:10:34;;;;;;;;;;;25.00;61.40;;;;;;5005240;28;19916;-75
2022/07/29 07:13:00;;;;;;;;;;;25.70;61.70;;;;;;5008725;28;19910;-75
2022/07/29 07:15:27;;;;;;;;;;;25.60;59.60;;;;;;5007214;28;20316;-76
2022/07/29 07:17:53;;;;;;;;;;;25.20;60.70;;;;;;5009868;28;19914;-75
2022/07/29 07:20:19;;;;;;;;;;;25.30;62.70;;;;;;5009541;28;19913;-75
2022/07/29 07:22:45;;;;;;;;;;;25.20;60.40;;;;;;5008440;28;19917;-75
2022/07/29 07:25:11;;;;;;;;;;;24.70;62.40;;;;;;5009325;28;19913;-77
2022/07/29 07:27:37;;;;;;;;;;;24.50;63.90;;;;;;5010590;28;19914;-75
2022/07/29 07:30:05;;;;;;;;;;;24.60;63.20;;;;;;5010806;28;19967;-75
2022/07/29 07:32:32;;;;;;;;;;;25.40;64.30;;;;;;5006840;28;20278;-75
2022/07/29 07:34:58;;;;;;;;;;;26.40;59.80;;;;;;5009305;28;20314;-76
2022/07/29 07:37:25;;;;;;;;;;;27.00;58.10;;;;;;5006553;28;20259;-75
2022/07/29 07:39:51;;;;;;;;;;;26.70;57.90;;;;;;5010466;28;20285;-76
2022/07/29 07:42:18;;;;;;;;;;;26.50;58.70;;;;;;5006355;28;19909;-75
2022/07/29 07:44:45;;;;;;;;;;;26.00;59.00;;;;;;5003125;28;20277;-74
2022/07/29 07:47:12;;;;;;;;;;;25.80;59.40;;;;;;5005586;28;19937;-74
2022/07/29 07:49:39;;;;;;;;;;;24.90;61.00;;;;;;5004561;28;20366;-74
2022/07/29 07:52:05;;;;;;;;;;;24.20;63.40;;;;;;5006740;28;19909;-75
2022/07/29 07:54:31;;;;;;;;;;;24.00;66.60;;;;;;5005701;28;20442;-75
2022/07/29 07:56:57;;;;;;;;;;;23.90;65.50;;;;;;5008331;28;19910;-74
2022/07/29 07:59:23;;;;;;;;;;;23.90;65.60;;;;;;5007419;28;20051;-75
2022/07/29 08:01:49;;;;;;;;;;;24.10;65.50;;;;;;5012997;28;19921;-74
2022/07/29 08:04:16;;;;;;;;;;;24.50;64.60;;;;;;5009049;28;20251;-75
2022/07/29 08:06:42;;;;;;;;;;;24.60;63.60;;;;;;5014542;28;19920;-76
2022/07/29 08:09:08;;;;;;;;;;;24.60;65.50;;;;;;5013639;28;19956;-78
2022/07/29 08:11:34;;;;;;;;;;;25.00;64.90;;;;;;5012677;28;19920;-75
2022/07/29 08:14:01;;;;;;;;;;;25.00;63.20;;;;;;5013480;28;19913;-76
2022/07/29 08:16:28;;;;;;;;;;;24.90;63.60;;;;;;5011758;28;19916;-75
2022/07/29 08:18:56;;;;;;;;;;;24.40;64.50;;;;;;5012856;28;19917;-76
2022/07/29 08:21:23;;;;;;;;;;;24.10;66.30;;;;;;5013742;28;19909;-75
2022/07/29 08:23:52;;;;;;;;;;;24.10;66.70;;;;;;5011690;28;19913;-75
2022/07/29 08:26:22;;;;;;;;;;;24.30;67.40;;;;;;5011768;28;19924;-76
2022/07/29 08:28:50;;;;;;;;;;;25.00;65.20;;;;;;5010845;28;19917;-78
2022/07/29 08:31:16;;;;;;;;;;;24.90;65.00;;;;;;5012212;28;19925;-85
2022/07/29 08:33:43;;;;;;;;;;;24.90;65.70;;;;;;5013501;28;19913;-75
2022/07/29 08:36:09;;;;;;;;;;;25.20;65.10;;;;;;5010907;28;19913;-77
2022/07/29 08:38:35;;;;;;;;;;;25.50;67.60;;;;;;5010790;28;19917;-75
2022/07/29 08:41:01;;;;;;;;;;;26.80;64.30;;;;;;5010086;28;19909;-74
2022/07/29 08:43:28;;;;;;;;;;;27.40;59.50;;;;;;5008751;28;19910;-75
2022/07/29 08:45:54;;;;;;;;;;;27.70;58.20;;;;;;5014681;28;20351;-76
2022/07/29 08:48:21;;;;;;;;;;;27.20;58.70;;;;;;5010610;28;19914;-75
2022/07/29 08:50:49;;;;;;;;;;;27.00;60.80;;;;;;5013639;28;20350;-76
2022/07/29 08:53:17;;;;;;;;;;;27.70;61.10;;;;;;5011775;28;19910;-74
2022/07/29 08:55:44;;;;;;;;;;;28.00;58.70;;;;;;5012825;28;20410;-73
2022/07/29 08:58:10;;;;;;;;;;;27.60;61.60;;;;;;5010701;28;20370;-74
2022/07/29 09:00:37;;;;;;;;;;;27.80;60.50;;;;;;5013122;28;20012;-74
2022/07/29 09:03:04;;;;;;;;;;;28.10;61.40;;;;;;5014286;28;19924;-74
2022/07/29 09:05:31;;;;;;;;;;;28.60;60.30;;;;;;5013666;28;20286;-74
2022/07/29 09:07:57;;;;;;;;;;;28.10;59.60;;;;;;5007248;28;19914;-74
2022/07/29 09:10:23;;;;;;;;;;;26.40;62.50;;;;;;5009774;28;19917;-74
2022/07/29 09:12:49;;;;;;;;;;;25.70;63.70;;;;;;5007438;28;19909;-73
2022/07/29 09:15:15;;;;;;;;;;;25.40;65.20;;;;;;5006240;28;19917;-74
2022/07/29 09:17:45;;;;;;;;;;;25.70;65.10;;;;;;5023781;28;19909;-74
2022/07/29 09:20:16;;;;;;;;;;;26.50;63.80;;;;;;5009752;28;19913;-75
2022/07/29 09:22:42;;;;;;;;;;;27.20;62.80;;;;;;5010519;28;19910;-75
2022/07/29 09:25:08;;;;;;;;;;;27.30;61.30;;;;;;5010218;28;19909;-76
2022/07/29 09:27:35;;;;;;;;;;;26.80;62.20;;;;;;5012956;28;19914;-74
2022/07/29 09:30:01;;;;;;;;;;;27.70;62.50;;;;;;5013860;28;19921;-77
2022/07/29 09:32:27;;;;;;;;;;;28.80;59.80;;;;;;5016336;28;19913;-76
2022/07/29 09:35:12;;;;;;;;;;;28.30;59.40;;;;;;5012652;28;20265;-75
2022/07/29 09:37:38;;;;;;;;;;;28.40;61.20;;;;;;5009357;28;19909;-74
2022/07/29 09:40:18;;;;;;;;;;;28.80;58.80;;;;;;5020168;28;19909;-75
2022/07/29 09:42:44;;;;;;;;;;;29.60;57.90;;;;;;5012599;28;19913;-75
2022/07/29 09:45:11;;;;;;;;;;;29.80;57.10;;;;;;5007398;28;19910;-75
2022/07/29 09:47:48;;;;;;;;;;;29.70;56.80;;;;;;5011151;28;19913;-75
2022/07/29 09:50:15;;;;;;;;;;;29.40;57.00;;;;;;5009915;28;19910;-76
2022/07/29 09:52:48;;;;;;;;;;;29.10;57.40;;;;;;5011618;28;19920;-75
2022/07/29 09:55:15;;;;;;;;;;;28.30;57.80;;;;;;5008382;28;19916;-76
2022/07/29 09:57:41;;;;;;;;;;;27.20;60.00;;;;;;5013858;28;19913;-77
2022/07/29 10:00:12;;;;;;;;;;;27.80;60.90;;;;;;5011739;28;19910;-75
2022/07/29 10:02:39;;;;;;;;;;;28.60;60.20;;;;;;5010216;28;20220;-76
2022/07/29 10:05:06;;;;;;;;;;;29.70;57.20;;;;;;5011128;28;19909;-75
2022/07/29 10:07:55;;;;;;;;;;;30.40;55.80;;;;;;5008571;28;20366;-74
2022/07/29 10:10:28;;;;;;;;;;;30.20;56.00;;;;;;5010774;28;19917;-76
2022/07/29 10:12:55;;;;;;;;;;;29.60;56.50;;;;;;5007781;28;19920;-75
2022/07/29 10:15:22;;;;;;;;;;;28.70;56.40;;;;;;5005214;28;20287;-75
2022/07/29 10:17:48;;;;;;;;;;;28.80;56.90;;;;;;5011638;28;19909;-75
2022/07/29 10:20:15;;;;;;;;;;;28.50;57.80;;;;;;5012510;28;20305;-74
2022/07/29 10:22:41;;;;;;;;;;;27.60;58.10;;;;;;5008285;28;20350;-76
2022/07/29 10:25:08;;;;;;;;;;;27.50;59.40;;;;;;5003202;28;19914;-74
2022/07/29 10:27:35;;;;;;;;;;;28.10;59.00;;;;;;5009900;28;19914;-74
2022/07/29 10:30:01;;;;;;;;;;;28.30;58.50;;;;;;5009428;28;19917;-76
2022/07/29 10:32:27;;;;;;;;;;;28.30;58.70;;;;;;5013008;28;20370;-74
2022/07/29 10:35:12;;;;;;;;;;;28.50;57.70;;;;;;5010082;28;19913;-81
2022/07/29 10:37:41;;;;;;;;;;;28.30;58.30;;;;;;5014964;28;20057;-75
2022/07/29 10:43:02;;;;;;;;;;;27.90;57.90;;;;;;5010772;28;19916;-76
2022/07/29 10:45:29;;;;;;;;;;;28.00;59.20;;;;;;5013851;28;19916;-78
2022/07/29 10:48:05;;;;;;;;;;;28.20;57.80;;;;;;5010914;28;19920;-75
2022/07/29 10:50:50;;;;;;;;;;;28.30;58.10;;;;;;5005854;28;19924;-77
2022/07/29 10:53:16;;;;;;;;;;;28.30;58.30;;;;;;5010366;28;19917;-75
2022/07/29 10:55:46;;;;;;;;;;;28.30;58.10;;;;;;5010374;28;19942;-76
2022/07/29 10:58:17;;;;;;;;;;;28.10;58.60;;;;;;5007982;28;19920;-76
2022/07/29 11:00:43;;;;;;;;;;;27.70;59.70;;;;;;5010836;28;20255;-76
2022/07/29 11:03:09;;;;;;;;;;;27.50;59.30;;;;;;5009373;28;19913;-75
2022/07/29 11:05:51;;;;;;;;;;;27.30;59.70;;;;;;5004682;28;20362;-75
2022/07/29 11:08:21;;;;;;;;;;;27.50;60.00;;;;;;5012614;28;19909;-75
2022/07/29 11:10:48;;;;;;;;;;;27.60;59.20;;;;;;5012784;28;19909;-74
2022/07/29 11:13:34;;;;;;;;;;;27.90;59.40;;;;;;5018542;28;19917;-76
2022/07/29 11:16:00;;;;;;;;;;;28.30;59.90;;;;;;5006353;28;19909;-75
2022/07/29 11:18:26;;;;;;;;;;;28.70;58.80;;;;;;5014505;28;19977;-76
2022/07/29 11:20:53;;;;;;;;;;;28.70;58.00;;;;;;5014229;28;19917;-76
2022/07/29 11:23:28;;;;;;;;;;;28.40;57.40;;;;;;5014593;28;19909;-75
2022/07/29 11:26:13;;;;;;;;;;;28.10;58.50;;;;;;5013300;28;19940;-76
2022/07/29 11:29:00;;;;;;;;;;;28.30;59.10;;;;;;5013452;28;19909;-77
2022/07/29 11:31:32;;;;;;;;;;;28.20;57.70;;;;;;5005415;28;20374;-79
2022/07/29 11:34:32;;;;;;;;;;;27.70;59.30;;;;;;5008652;28;20326;-77
2022/07/29 11:37:08;;;;;;;;;;;27.60;59.50;;;;;;5002088;28;20385;-76
2022/07/29 11:39:38;;;;;;;;;;;28.00;57.60;;;;;;5007528;28;19913;-75
2022/07/29 11:42:16;;;;;;;;;;;28.30;58.40;;;;;;5009520;28;19916;-75
2022/07/29 11:44:54;;;;;;;;;;;28.80;57.10;;;;;;5009701;28;19914;-76
2022/07/29 11:47:21;;;;;;;;;;;29.20;56.10;;;;;;5007095;28;19925;-76
2022/07/29 11:49:47;;;;;;;;;;;29.00;55.30;;;;;;5008068;28;20270;-75
2022/07/29 11:52:13;;;;;;;;;;;28.80;56.00;;;;;;5009914;28;19917;-75
2022/07/29 11:54:41;;;;;;;;;;;29.20;56.50;;;;;;5008914;28;19913;-77
2022/07/29 11:57:08;;;;;;;;;;;29.60;54.00;;;;;;5006761;28;20266;-76
2022/07/29 11:59:43;;;;;;;;;;;29.00;54.80;;;;;;5008885;28;19920;-76
2022/07/29 12:02:10;;;;;;;;;;;29.00;55.50;;;;;;5007780;28;20375;-75
2022/07/29 12:04:56;;;;;;;;;;;29.40;55.50;;;;;;5007155;28;19910;-76
2022/07/29 12:07:28;;;;;;;;;;;29.80;54.70;;;;;;5006366;28;20290;-76
2022/07/29 12:09:54;;;;;;;;;;;29.80;54.10;;;;;;5008461;28;19920;-75
2022/07/29 12:12:20;;;;;;;;;;;29.40;53.90;;;;;;5009258;28;19916;-75
2022/07/29 12:14:46;;;;;;;;;;;29.40;53.50;;;;;;5006731;28;20374;-78
2022/07/29 12:17:29;;;;;;;;;;;29.30;52.90;;;;;;5008662;28;19920;-76
2022/07/29 12:19:56;;;;;;;;;;;29.20;54.70;;;;;;5006420;28;19909;-75
2022/07/29 12:22:32;;;;;;;;;;;29.60;53.40;;;;;;5008153;28;19910;-76
2022/07/29 12:25:02;;;;;;;;;;;29.80;52.50;;;;;;5008099;28;19917;-76
2022/07/29 12:27:28;;;;;;;;;;;29.60;52.70;;;;;;5006564;28;20366;-74
2022/07/29 12:29:59;;;;;;;;;;;29.80;52.10;;;;;;5006875;28;20362;-76
2022/07/29 12:32:31;;;;;;;;;;;29.90;52.90;;;;;;5004258;28;19921;-76
2022/07/29 12:34:57;;;;;;;;;;;30.00;52.10;;;;;;5004168;28;19920;-75
2022/07/29 12:37:23;;;;;;;;;;;29.90;50.70;;;;;;5006803;28;19913;-75
2022/07/29 12:39:49;;;;;;;;;;;29.80;51.70;;;;;;5010774;28;19910;-76
2022/07/29 12:42:16;;;;;;;;;;;29.80;51.90;;;;;;5006249;28;19910;-74
2022/07/29 12:44:45;;;;;;;;;;;29.60;51.60;;;;;;5003850;28;19913;-78
2022/07/29 12:47:11;;;;;;;;;;;29.40;51.50;;;;;;5007541;28;19925;-79
2022/07/29 12:49:37;;;;;;;;;;;29.00;52.10;;;;;;5012097;28;19910;-76
2022/07/29 12:52:22;;;;;;;;;;;29.10;52.30;;;;;;5016032;28;19915;-74
2022/07/29 12:54:48;;;;;;;;;;;29.20;52.30;;;;;;5007530;28;20358;-78
2022/07/29 12:57:14;;;;;;;;;;;29.00;52.10;;;;;;5011072;28;20290;-79
2022/07/29 12:59:40;;;;;;;;;;;29.00;52.90;;;;;;5010608;28;19909;-75
2022/07/29 13:02:06;;;;;;;;;;;29.20;51.40;;;;;;5008089;28;20004;-75
2022/07/29 13:04:33;;;;;;;;;;;29.00;52.60;;;;;;5010515;28;19909;-74
2022/07/29 13:07:01;;;;;;;;;;;29.10;52.00;;;;;;5007612;28;20294;-74
2022/07/29 13:09:36;;;;;;;;;;;29.30;51.90;;;;;;5009401;28;19917;-74
2022/07/29 13:12:06;;;;;;;;;;;29.50;50.00;;;;;;5006815;28;19909;-73
2022/07/29 13:14:36;;;;;;;;;;;29.20;52.10;;;;;;5007841;28;19916;-73
2022/07/29 13:17:07;;;;;;;;;;;29.20;49.90;;;;;;5004455;28;20353;-73
2022/07/29 13:19:41;;;;;;;;;;;29.30;49.90;;;;;;5012333;28;19909;-73
2022/07/29 13:22:11;;;;;;;;;;;29.70;48.70;;;;;;5008821;28;19917;-72
2022/07/29 13:24:50;;;;;;;;;;;30.00;49.30;;;;;;5008401;28;19942;-75
2022/07/29 13:27:26;;;;;;;;;;;30.50;48.60;;;;;;5003637;28;20421;-74
2022/07/29 13:29:54;;;;;;;;;;;29.80;48.20;;;;;;5012366;28;19916;-73
2022/07/29 13:32:20;;;;;;;;;;;29.60;50.00;;;;;;5008149;28;19913;-78
2022/07/29 13:34:46;;;;;;;;;;;29.70;49.20;;;;;;5012451;28;19940;-75
2022/07/29 13:37:12;;;;;;;;;;;29.70;48.80;;;;;;5011465;28;19909;-74
2022/07/29 13:39:38;;;;;;;;;;;29.80;48.90;;;;;;5002849;28;19909;-74
2022/07/29 13:42:06;;;;;;;;;;;29.60;49.30;;;;;;5009478;28;19936;-74
2022/07/29 13:44:32;;;;;;;;;;;29.70;48.90;;;;;;5001197;28;19909;-74
2022/07/29 13:46:58;;;;;;;;;;;29.80;48.40;;;;;;5004099;28;19925;-74
2022/07/29 13:49:25;;;;;;;;;;;29.80;47.40;;;;;;5012297;28;20309;-75
2022/07/29 13:51:51;;;;;;;;;;;29.50;47.70;;;;;;4994537;28;19917;-74
2022/07/29 13:54:17;;;;;;;;;;;29.50;49.40;;;;;;5009673;28;19910;-74
2022/07/29 13:56:43;;;;;;;;;;;29.70;48.00;;;;;;5007122;28;19905;-74
2022/07/29 13:59:09;;;;;;;;;;;29.70;48.70;;;;;;5011760;28;19909;-74
2022/07/29 14:01:35;;;;;;;;;;;29.60;49.20;;;;;;5005594;28;19913;-73
2022/07/29 14:04:01;;;;;;;;;;;29.50;48.70;;;;;;5012003;28;19905;-74
2022/07/29 14:06:27;;;;;;;;;;;29.70;50.00;;;;;;5009504;28;19918;-74
2022/07/29 14:08:53;;;;;;;;;;;30.10;48.30;;;;;;5011107;28;19913;-74
2022/07/29 14:11:19;;;;;;;;;;;30.40;48.70;;;;;;5010607;28;19921;-74
2022/07/29 14:13:45;;;;;;;;;;;30.80;47.80;;;;;;5010623;28;19909;-74
2022/07/29 14:16:11;;;;;;;;;;;30.80;47.40;;;;;;5012625;28;19920;-76
2022/07/29 14:18:37;;;;;;;;;;;30.80;47.90;;;;;;5008823;28;19910;-73
2022/07/29 14:21:03;;;;;;;;;;;31.00;47.30;;;;;;5006910;28;19911;-75
2022/07/29 14:23:29;;;;;;;;;;;30.50;47.80;;;;;;5007318;28;19909;-75
2022/07/29 14:25:55;;;;;;;;;;;30.50;48.90;;;;;;5004703;28;20385;-75
2022/07/29 14:28:21;;;;;;;;;;;30.90;48.30;;;;;;5007078;28;19921;-78
2022/07/29 14:30:47;;;;;;;;;;;31.20;47.20;;;;;;5006242;28;19921;-74